Time;durP1;ratioP1;P1;durP2;ratioP2;P2;SDS_P1;SDS_P2;PMS_P1;PMS_P2;Temp;Humidity;BMP_temperature;BMP_pressure;BME280_temperature;BME280_humidity;BME280_pressure;Samples;Min_cycle;Max_cycle;Signal;HPM_P1;HPM_P2
2021/10/07 00:00:36;;;;;;;12.55;7.03;;;;;;;3.10;59.88;101396.80;1686960;83;21522;-69
2021/10/07 00:03:02;;;;;;;15.18;6.95;;;;;;;3.03;59.99;101395.85;1725798;83;20971;-69
2021/10/07 00:05:29;;;;;;;11.22;5.62;;;;;;;2.99;60.15;101398.08;1688167;85;21071;-69
2021/10/07 00:07:55;;;;;;;14.98;6.45;;;;;;;2.95;60.21;101403.48;1673412;85;20964;-69
2021/10/07 00:10:22;;;;;;;15.55;6.28;;;;;;;2.92;60.16;101403.34;1701694;82;21059;-70
2021/10/07 00:12:48;;;;;;;14.10;5.80;;;;;;;2.91;60.15;101401.66;1663607;85;21544;-69
2021/10/07 00:15:15;;;;;;;13.00;6.20;;;;;;;2.89;60.28;101406.41;1707694;82;21019;-70
2021/10/07 00:17:41;;;;;;;;;;;;;;;2.88;60.40;101411.95;1719759;83;21466;-70
2021/10/07 00:20:10;;;;;;;11.20;5.90;;;;;;;2.83;60.47;101404.45;1708095;82;20101;-69
2021/10/07 00:22:38;;;;;;;14.63;6.20;;;;;;;2.78;60.55;101405.99;1700411;83;20983;-70
2021/10/07 00:25:07;;;;;;;15.00;5.62;;;;;;;2.75;60.74;101411.73;1716239;82;21569;-70
2021/10/07 00:27:36;;;;;;;13.38;5.08;;;;;;;2.72;60.78;101408.91;1717654;83;21032;-70
2021/10/07 00:30:15;;;;;;;15.80;5.83;;;;;;;2.68;60.96;101400.03;1724871;83;21129;-70
2021/10/07 00:32:43;;;;;;;11.25;5.33;;;;;;;2.65;61.05;101407.95;1724969;82;21004;-70
2021/10/07 00:40:06;;;;;;;10.70;5.67;;;;;;;2.58;61.50;101411.53;1720491;82;21082;-70
2021/10/07 00:42:32;;;;;;;11.90;5.30;;;;;;;2.57;61.47;101418.77;1699632;82;21581;-69
2021/10/07 00:44:59;;;;;;;14.15;5.80;;;;;;;2.55;61.50;101417.28;1687597;85;21050;-70
2021/10/07 00:47:25;;;;;;;11.63;5.62;;;;;;;2.55;61.59;101421.31;1707380;82;21022;-70
2021/10/07 00:49:51;;;;;;;14.73;6.80;;;;;;;2.50;61.68;101418.64;1706090;82;21573;-70
2021/10/07 00:52:19;;;;;;;13.10;5.60;;;;;;;2.51;61.76;101423.52;1697674;82;21009;-70
2021/10/07 00:54:49;;;;;;;13.70;6.42;;;;;;;2.48;61.80;101427.38;1661624;85;21066;-70
2021/10/07 00:57:19;;;;;;;13.05;5.65;;;;;;;2.46;61.80;101425.89;1711745;82;21019;-70
2021/10/07 00:59:46;;;;;;;13.72;6.03;;;;;;;2.42;61.89;101429.44;1710074;82;21043;-70
2021/10/07 01:02:12;;;;;;;14.05;5.78;;;;;;;2.40;61.92;101436.86;1717659;82;21522;-70
2021/10/07 01:04:39;;;;;;;11.12;5.05;;;;;;;2.39;62.08;101435.68;1725669;82;21047;-69
2021/10/07 01:07:06;;;;;;;14.18;5.65;;;;;;;2.35;62.18;101431.16;1719827;83;20983;-70
2021/10/07 01:09:32;;;;;;;11.43;4.37;;;;;;;2.33;62.31;101433.71;1723013;82;21057;-70
2021/10/07 01:12:01;;;;;;;12.78;5.17;;;;;;;2.32;62.43;101433.37;1723992;82;21486;-70
2021/10/07 01:14:58;;;;;;;10.43;5.12;;;;;;;2.29;62.49;101436.42;1708772;83;21054;-69
2021/10/07 01:17:29;;;;;;;11.78;4.87;;;;;;;2.28;62.55;101442.30;1696733;82;21533;-70
2021/10/07 01:19:57;;;;;;;10.32;5.17;;;;;;;2.27;62.68;101440.61;1696923;83;21625;-69
2021/10/07 01:22:25;;;;;;;11.68;5.37;;;;;;;2.28;62.57;101434.23;1694958;84;21039;-69
2021/10/07 01:24:51;;;;;;;11.75;4.65;;;;;;;2.25;62.69;101437.28;1724956;82;21046;-70
2021/10/07 01:27:20;;;;;;;10.05;4.78;;;;;;;2.27;62.64;101442.45;1688221;85;20987;-70
2021/10/07 01:29:58;;;;;;;12.90;4.45;;;;;;;2.24;62.67;101440.13;1722084;82;21074;-70
2021/10/07 01:32:25;;;;;;;11.90;5.40;;;;;;;2.22;62.63;101437.63;1718690;82;21442;-70
2021/10/07 01:34:51;;;;;;;10.78;4.55;;;;;;;2.17;62.75;101444.53;1703197;82;21044;-70
2021/10/07 01:37:17;;;;;;;12.70;5.35;;;;;;;2.16;62.80;101448.25;1725246;82;21545;-70
2021/10/07 01:39:43;;;;;;;10.82;4.35;;;;;;;2.10;62.92;101452.45;1690160;85;21054;-69
2021/10/07 01:42:10;;;;;;;9.20;4.53;;;;;;;2.11;62.92;101455.98;1726933;82;21003;-70
2021/10/07 01:44:39;;;;;;;11.55;4.47;;;;;;;2.06;63.12;101452.48;1715258;83;21063;-70
2021/10/07 01:47:06;;;;;;;11.18;4.95;;;;;;;2.03;63.16;101451.48;1723823;82;20963;-70
2021/10/07 01:52:31;;;;;;;8.70;4.28;;;;;;;1.99;63.36;101455.53;1801202;79;22875;-69
2021/10/07 01:54:58;;;;;;;13.90;4.72;;;;;;;1.93;63.47;101462.45;1735119;81;21078;-70
2021/10/07 01:57:24;;;;;;;8.25;4.20;;;;;;;1.93;63.42;101463.80;1745124;82;21015;-70
2021/10/07 01:59:50;;;;;;;7.87;4.50;;;;;;;1.91;63.45;101467.67;1742139;82;21051;-69
2021/10/07 02:02:17;;;;;;;7.37;4.28;;;;;;;1.92;63.38;101470.16;1745504;82;21513;-69
2021/10/07 02:04:43;;;;;;;8.05;4.47;;;;;;;1.90;63.43;101466.83;1739201;82;21031;-71
2021/10/07 02:07:09;;;;;;;8.33;4.00;;;;;;;1.89;63.43;101466.48;1746848;82;21014;-69
2021/10/07 02:09:36;;;;;;;8.78;3.98;;;;;;;1.88;63.46;101467.98;1728454;82;21015;-69
2021/10/07 02:12:03;;;;;;;7.95;4.47;;;;;;;1.89;63.46;101479.07;1723353;82;21026;-69
2021/10/07 02:14:29;;;;;;;8.88;4.22;;;;;;;1.88;63.50;101484.10;1726925;82;21105;-69
2021/10/07 02:16:55;;;;;;;9.33;4.00;;;;;;;1.87;63.53;101481.11;1725822;82;21593;-69
2021/10/07 02:19:22;;;;;;;9.83;3.90;;;;;;;1.87;63.50;101483.30;1725516;82;21026;-69
2021/10/07 02:21:48;;;;;;;13.40;4.47;;;;;;;1.86;63.46;101485.64;1735437;82;21023;-69
2021/10/07 02:24:14;;;;;;;13.18;4.53;;;;;;;1.84;63.52;101476.09;1730974;82;21073;-69
2021/10/07 02:26:41;;;;;;;13.40;4.50;;;;;;;1.79;63.55;101477.94;1725541;82;21096;-69
2021/10/07 02:29:08;;;;;;;7.03;3.85;;;;;;;1.76;63.60;101481.47;1728982;82;21573;-70
2021/10/07 02:31:35;;;;;;;10.65;4.10;;;;;;;1.73;63.68;101479.14;1736593;82;21348;-69
2021/10/07 02:34:01;;;;;;;;;;;;;;;1.72;63.70;101480.14;1747913;82;21526;-69
2021/10/07 02:36:28;;;;;;;7.22;3.98;;;;;;;1.73;63.73;101479.98;1735140;82;20435;-69
2021/10/07 02:38:54;;;;;;;9.43;3.92;;;;;;;1.70;63.75;101475.45;1724318;82;21070;-70
2021/10/07 02:41:20;;;;;;;14.00;3.47;;;;;;;1.70;63.78;101472.77;1723436;82;21058;-69
2021/10/07 02:43:47;;;;;;;8.08;3.85;;;;;;;1.71;63.86;101473.92;1740742;82;21011;-69
2021/10/07 02:46:13;;;;;;;9.90;3.58;;;;;;;1.69;63.93;101461.70;1750448;82;20976;-68
2021/10/07 02:48:42;;;;;;;9.93;4.53;;;;;;;1.69;64.00;101475.95;1738915;82;20999;-69
2021/10/07 02:51:08;;;;;;;12.95;4.10;;;;;;;1.67;63.96;101473.09;1746495;82;21101;-69
2021/10/07 02:53:35;;;;;;;10.53;4.47;;;;;;;1.66;63.92;101473.63;1713237;82;21066;-69
2021/10/07 02:56:01;;;;;;;8.08;3.77;;;;;;;1.68;63.89;101482.83;1717224;82;21593;-70
2021/10/07 02:58:27;;;;;;;8.80;3.95;;;;;;;1.66;63.89;101478.99;1718704;82;21171;-70
2021/10/07 03:00:54;;;;;;;10.95;3.77;;;;;;;1.66;63.85;101482.17;1713133;82;21023;-69
2021/10/07 03:03:20;;;;;;;6.85;3.47;;;;;;;1.66;63.80;101487.55;1725454;82;21708;-69
2021/10/07 03:05:46;;;;;;;9.50;4.17;;;;;;;1.63;63.80;101488.70;1716892;82;21016;-70
2021/10/07 03:08:13;;;;;;;8.55;4.30;;;;;;;1.62;63.87;101489.73;1727646;82;21084;-69
2021/10/07 03:10:39;;;;;;;9.28;4.10;;;;;;;1.61;63.89;101493.92;1730798;82;21020;-69
2021/10/07 03:13:06;;;;;;;8.18;3.62;;;;;;;1.59;63.93;101491.42;1728038;82;21024;-70
2021/10/07 03:15:33;;;;;;;7.75;4.03;;;;;;;1.57;63.96;101489.89;1711958;82;21024;-69
2021/10/07 03:18:01;;;;;;;8.60;4.12;;;;;;;1.57;63.96;101497.45;1724142;82;21008;-69
2021/10/07 03:20:27;;;;;;;;;;;;;;;1.56;64.08;101490.92;1712820;82;21031;-70
2021/10/07 03:22:54;;;;;;;7.47;3.80;;;;;;;1.56;64.12;101490.39;1710935;82;20443;-69
2021/10/07 03:25:21;;;;;;;9.50;4.33;;;;;;;1.50;64.28;101491.93;1710453;82;21047;-69
2021/10/07 03:27:47;;;;;;;7.65;3.75;;;;;;;1.55;64.18;101495.95;1729631;82;21027;-69
2021/10/07 03:30:14;;;;;;;8.95;3.65;;;;;;;1.54;64.21;101492.42;1723512;82;20983;-70
2021/10/07 03:32:41;;;;;;;12.78;4.30;;;;;;;1.55;64.11;101491.92;1727834;82;20988;-69
2021/10/07 03:35:08;;;;;;;7.37;3.83;;;;;;;1.54;64.09;101489.74;1739091;82;21610;-70
2021/10/07 03:37:37;;;;;;;7.65;3.70;;;;;;;1.57;64.05;101492.58;1728985;82;21064;-69
2021/10/07 03:40:07;;;;;;;11.63;4.33;;;;;;;1.54;64.09;101492.92;1718312;82;21514;-70
2021/10/07 03:42:33;;;;;;;8.45;3.50;;;;;;;1.52;64.14;101495.80;1720912;82;21011;-69
2021/10/07 03:45:04;;;;;;;7.87;3.80;;;;;;;1.48;64.23;101497.98;1713513;82;21483;-69
2021/10/07 03:47:29;;;;;;;8.28;3.87;;;;;;;1.48;64.24;101494.45;1711441;82;21573;-69
2021/10/07 03:49:57;;;;;;;6.83;3.55;;;;;;;1.43;64.31;101494.95;1718040;82;21391;-70
2021/10/07 03:52:24;;;;;;;11.50;3.95;;;;;;;1.44;64.31;101497.14;1748709;82;21082;-69
2021/10/07 03:54:52;;;;;;;9.08;4.00;;;;;;;1.43;64.40;101494.95;1750236;82;21023;-70
2021/10/07 03:57:19;;;;;;;7.67;3.95;;;;;;;1.42;64.53;101497.30;1732405;82;21011;-70
2021/10/07 03:59:45;;;;;;;;;;;;;;;1.42;64.66;101501.83;1728211;82;21822;-69
2021/10/07 04:02:12;;;;;;;8.98;4.03;;;;;;;1.41;64.67;101505.05;1723327;83;20112;-69
2021/10/07 04:04:39;;;;;;;8.18;3.67;;;;;;;1.40;64.74;101498.48;1744146;82;21063;-69
2021/10/07 04:07:05;;;;;;;;;;;;;;;1.38;64.75;101499.98;1743496;82;21008;-69
2021/10/07 04:09:33;;;;;;;9.03;4.27;;;;;;;1.38;64.80;101497.30;1733957;82;20491;-70
2021/10/07 04:11:59;;;;;;;11.05;4.10;;;;;;;1.31;64.95;101500.33;1737297;82;20983;-69
2021/10/07 04:14:25;;;;;;;10.25;4.30;;;;;;;1.34;64.93;101500.52;1733110;82;21498;-69
2021/10/07 04:16:52;;;;;;;8.48;4.10;;;;;;;1.35;65.01;101496.30;1731071;82;21027;-69
2021/10/07 04:19:19;;;;;;;10.65;4.35;;;;;;;1.36;65.01;101501.17;1739548;82;21522;-69
2021/10/07 04:21:46;;;;;;;11.28;4.97;;;;;;;1.34;65.05;101495.99;1726982;82;21046;-68
2021/10/07 04:24:13;;;;;;;12.50;4.95;;;;;;;1.32;65.11;101497.14;1736945;82;21007;-70
2021/10/07 04:26:39;;;;;;;13.85;4.50;;;;;;;1.31;65.17;101504.88;1740923;82;21542;-69
2021/10/07 04:29:06;;;;;;;11.10;5.22;;;;;;;1.29;65.22;101504.20;1715734;82;21307;-69
2021/10/07 04:31:32;;;;;;;12.07;4.50;;;;;;;1.31;65.25;101504.88;1737614;82;21554;-69
2021/10/07 04:33:59;;;;;;;8.93;3.65;;;;;;;1.31;65.30;101510.25;1740459;82;21034;-69
2021/10/07 04:36:25;;;;;;;12.78;4.37;;;;;;;1.34;65.32;101510.75;1739430;82;21078;-69
2021/10/07 04:38:52;;;;;;;9.90;4.40;;;;;;;1.34;65.38;101515.27;1739319;82;21546;-70
2021/10/07 04:41:18;;;;;;;10.85;4.47;;;;;;;1.37;65.42;101518.95;1727583;82;21028;-68
2021/10/07 04:43:45;;;;;;;7.50;4.35;;;;;;;1.41;65.50;101518.45;1723726;82;21128;-70
2021/10/07 04:46:11;;;;;;;9.80;4.90;;;;;;;1.53;65.40;101512.72;1731188;82;21535;-69
2021/10/07 04:48:38;;;;;;;9.70;4.37;;;;;;;1.58;65.36;101515.74;1749819;82;21003;-69
2021/10/07 04:51:04;;;;;;;10.90;4.42;;;;;;;1.66;65.14;101511.70;1751538;81;21018;-69
2021/10/07 04:53:30;;;;;;;11.73;4.42;;;;;;;1.69;65.07;101520.76;1735419;82;21577;-69
2021/10/07 04:55:57;;;;;;;14.20;5.20;;;;;;;1.76;64.92;101515.03;1724955;82;21047;-70
2021/10/07 04:58:25;;;;;;;10.60;4.78;;;;;;;1.78;64.92;101515.69;1722779;82;21086;-70
2021/10/07 05:00:51;;;;;;;10.15;4.78;;;;;;;1.83;64.81;101519.55;1727936;82;20952;-70
2021/10/07 05:03:17;;;;;;;12.60;5.53;;;;;;;1.86;64.79;101528.61;1736700;81;21558;-70
2021/10/07 05:05:45;;;;;;;12.30;5.20;;;;;;;1.94;64.63;101525.91;1728975;82;20960;-71
2021/10/07 05:08:11;;;;;;;12.43;4.95;;;;;;;1.97;64.63;101528.74;1730708;82;21091;-70
2021/10/07 05:10:38;;;;;;;12.30;4.83;;;;;;;2.03;64.56;101532.08;1725626;82;21597;-71
2021/10/07 05:13:05;;;;;;;8.85;4.67;;;;;;;2.09;64.53;101535.94;1727275;82;21048;-70
2021/10/07 05:15:34;;;;;;;13.20;5.30;;;;;;;2.14;64.52;101534.39;1729652;82;22161;-70
2021/10/07 05:18:00;;;;;;;9.23;4.45;;;;;;;2.18;64.53;101535.72;1727242;81;21047;-70
2021/10/07 05:20:26;;;;;;;10.13;4.70;;;;;;;2.25;64.38;101535.36;1712189;82;20980;-70
2021/10/07 05:22:53;;;;;;;10.85;5.05;;;;;;;2.32;64.31;101535.50;1715722;82;21023;-71
2021/10/07 05:25:19;;;;;;;8.03;4.67;;;;;;;2.40;64.12;101538.16;1726527;82;21466;-71
2021/10/07 05:27:45;;;;;;;9.95;4.67;;;;;;;2.49;64.02;101536.59;1722115;82;21019;-72
2021/10/07 05:30:12;;;;;;;;;;;;;;;2.58;63.74;101542.77;1740911;82;21425;-71
2021/10/07 05:32:39;;;;;;;11.75;5.83;;;;;;;2.68;63.62;101550.61;1716613;82;20438;-72
2021/10/07 05:35:06;;;;;;;10.30;4.50;;;;;;;2.83;63.64;101552.89;1721165;82;21039;-72
2021/10/07 05:37:32;;;;;;;11.48;4.85;;;;;;;3.09;63.30;101554.71;1728393;82;21075;-72
2021/10/07 05:39:58;;;;;;;9.93;4.90;;;;;;;3.37;62.60;101553.65;1712911;82;21051;-72
2021/10/07 05:42:25;;;;;;;10.90;5.33;;;;;;;3.65;61.92;101562.83;1709712;82;21043;-73
2021/10/07 05:44:51;;;;;;;11.15;4.35;;;;;;;3.94;61.30;101560.69;1711988;82;21036;-73
2021/10/07 05:47:17;;;;;;;12.78;5.40;;;;;;;4.21;60.61;101561.42;1717528;82;21518;-71
2021/10/07 05:49:44;;;;;;;20.75;8.73;;;;;;;4.46;59.61;101559.27;1726889;82;21087;-72
2021/10/07 05:52:10;;;;;;;19.73;7.40;;;;;;;4.69;58.90;101564.01;1738683;81;21016;-72
2021/10/07 05:54:36;;;;;;;14.98;6.72;;;;;;;4.92;58.39;101567.38;1721842;82;21062;-72
2021/10/07 05:57:04;;;;;;;15.18;6.50;;;;;;;5.13;57.81;101566.59;1711643;82;21019;-72
2021/10/07 05:59:32;;;;;;;13.83;5.58;;;;;;;5.34;57.07;101565.25;1732103;82;21056;-72
2021/10/07 06:01:59;;;;;;;10.60;4.95;;;;;;;5.59;56.61;101567.03;1723122;82;21061;-70
2021/10/07 06:04:25;;;;;;;;;;;;;;;5.87;56.30;101567.07;1724737;82;21059;-71
2021/10/07 06:06:52;;;;;;;12.05;4.85;;;;;;;6.15;55.38;101567.05;1722843;82;20144;-71
2021/10/07 06:09:18;;;;;;;;;;;;;;;6.28;54.77;101568.47;1718276;82;21064;-70
2021/10/07 06:11:44;;;;;;;13.75;5.30;;;;;;;6.49;54.28;101575.14;1731770;81;20131;-73
2021/10/07 06:14:12;;;;;;;14.83;6.95;;;;;;;6.65;53.51;101572.63;1720744;82;21114;-71
2021/10/07 06:16:40;;;;;;;12.78;5.80;;;;;;;6.88;52.68;101577.17;1721426;82;21617;-73
2021/10/07 06:19:11;;;;;;;13.15;5.85;;;;;;;7.11;51.75;101576.33;1737904;82;21047;-71
2021/10/07 06:21:36;;;;;;;10.23;5.30;;;;;;;7.29;51.20;101577.09;1738869;82;21020;-72
2021/10/07 06:24:04;;;;;;;11.57;5.62;;;;;;;7.49;51.01;101575.23;1737102;82;21090;-72
2021/10/07 06:26:30;;;;;;;16.97;5.62;;;;;;;7.68;50.04;101574.42;1737501;81;21027;-72
2021/10/07 06:28:56;;;;;;;16.90;5.30;;;;;;;7.86;48.27;101576.51;1735282;81;21526;-71
2021/10/07 06:31:23;;;;;;;8.65;4.72;;;;;;;7.86;48.27;101576.51;1664887;84;21040;-72
2021/10/07 06:33:49;;;;;;;14.85;5.05;;;;;;;7.92;48.09;101573.79;1648041;87;21055;-71
2021/10/07 06:36:16;;;;;;;12.18;5.15;;;;;;;8.03;48.40;101575.03;1673113;84;21501;-71
2021/10/07 06:38:43;;;;;;;12.07;5.12;;;;;;;8.19;48.00;101571.02;1697064;84;21150;-71
2021/10/07 06:41:09;;;;;;;;;;;;;;;8.34;47.22;101579.28;1699152;84;21058;-71
2021/10/07 06:43:36;;;;;;;11.03;4.83;;;;;;;8.52;46.78;101580.48;1689003;84;20176;-72
2021/10/07 06:46:02;;;;;;;10.03;4.95;;;;;;;8.63;46.55;101575.74;1689710;84;21043;-71
2021/10/07 06:48:28;;;;;;;13.38;5.05;;;;;;;8.83;46.21;101583.28;1689110;84;21046;-72
2021/10/07 06:50:55;;;;;;;13.25;5.47;;;;;;;8.94;45.62;101578.53;1733967;82;21530;-72
2021/10/07 06:53:21;;;;;;;11.53;4.85;;;;;;;9.10;45.37;101576.69;1730992;80;21055;-72
2021/10/07 06:55:47;;;;;;;14.55;5.92;;;;;;;9.25;45.16;101580.44;1740443;82;20948;-72
2021/10/07 06:58:16;;;;;;;12.25;5.58;;;;;;;9.40;44.78;101577.73;1743636;82;21073;-72
2021/10/07 07:00:42;;;;;;;15.25;5.97;;;;;;;9.64;44.43;101575.25;1739332;80;21545;-72
2021/10/07 07:03:09;;;;;;;14.90;6.20;;;;;;;9.89;43.74;101575.56;1753027;82;21053;-72
2021/10/07 07:05:36;;;;;;;13.95;5.75;;;;;;;10.08;42.98;101575.09;1748057;82;21501;-71
2021/10/07 07:08:03;;;;;;;15.85;6.50;;;;;;;10.16;42.55;101572.12;1732089;82;21042;-72
2021/10/07 07:10:29;;;;;;;13.28;6.28;;;;;;;10.33;42.24;101580.00;1725115;82;21042;-72
2021/10/07 07:12:55;;;;;;;17.40;6.10;;;;;;;10.51;41.81;101575.09;1735349;82;21572;-72
2021/10/07 07:15:23;;;;;;;11.12;4.70;;;;;;;10.60;41.18;101579.69;1747408;82;21058;-71
2021/10/07 07:17:50;;;;;;;12.30;4.80;;;;;;;10.67;40.84;101581.80;1723020;82;21648;-71
2021/10/07 07:20:16;;;;;;;13.25;4.67;;;;;;;10.77;40.85;101586.21;1726069;82;20987;-71
2021/10/07 07:22:43;;;;;;;9.85;4.62;;;;;;;10.91;39.93;101588.52;1733030;82;21031;-71
2021/10/07 07:25:09;;;;;;;18.12;4.90;;;;;;;11.02;39.84;101580.09;1737653;82;21046;-71
2021/10/07 07:27:36;;;;;;;12.88;4.85;;;;;;;11.16;38.82;101587.59;1749204;82;21534;-70
2021/10/07 07:30:05;;;;;;;14.93;5.40;;;;;;;11.10;38.70;101583.03;1735144;82;21022;-71
2021/10/07 07:32:32;;;;;;;12.43;4.87;;;;;;;11.13;39.05;101590.74;1731450;82;21031;-71
2021/10/07 07:34:58;;;;;;;8.78;3.83;;;;;;;11.20;38.58;101595.58;1726629;82;21435;-71
2021/10/07 07:37:25;;;;;;;10.48;4.22;;;;;;;11.27;38.46;101594.42;1739599;82;21527;-71
2021/10/07 07:39:52;;;;;;;11.30;4.60;;;;;;;11.42;37.67;101600.30;1727762;82;21173;-73
2021/10/07 07:42:20;;;;;;;11.83;3.85;;;;;;;11.45;37.18;101600.35;1734801;82;21127;-73
2021/10/07 07:44:47;;;;;;;10.95;3.85;;;;;;;11.45;37.49;101601.72;1733140;82;21490;-72
2021/10/07 07:47:14;;;;;;;10.58;4.30;;;;;;;11.56;37.52;101606.37;1733378;82;21011;-71
2021/10/07 07:49:40;;;;;;;9.28;4.40;;;;;;;11.70;36.76;101592.00;1735174;82;21530;-72
2021/10/07 07:52:07;;;;;;;;;;;;;;;11.82;37.36;101606.01;1730879;81;21031;-71
2021/10/07 07:54:34;;;;;;;11.05;4.87;;;;;;;12.11;37.06;101600.17;1735528;82;20125;-70
2021/10/07 07:57:00;;;;;;;;;;;;;;;12.28;36.16;101603.84;1729769;82;20984;-71
2021/10/07 07:59:27;;;;;;;11.10;4.50;;;;;;;12.57;36.16;101599.31;1725313;82;20513;-71
2021/10/07 08:01:54;;;;;;;8.75;3.92;;;;;;;12.74;35.54;101596.66;1744065;82;21683;-72
2021/10/07 08:04:21;;;;;;;14.00;4.20;;;;;;;12.93;35.00;101591.33;1748591;82;21693;-71
2021/10/07 08:06:47;;;;;;;9.08;3.75;;;;;;;13.13;34.80;101583.55;1744270;82;21028;-72
2021/10/07 08:09:13;;;;;;;9.45;3.15;;;;;;;13.24;34.23;101587.31;1742858;82;21461;-71
2021/10/07 08:11:40;;;;;;;;;;;;;;;13.36;33.58;101585.34;1742728;82;21512;-71
2021/10/07 08:14:08;;;;;;;9.03;4.05;;;;;;;13.39;33.20;101582.14;1730536;82;20408;-71
2021/10/07 08:16:36;;;;;;;9.28;3.35;;;;;;;13.34;32.89;101581.50;1750468;82;21019;-71
2021/10/07 08:19:03;;;;;;;12.37;3.20;;;;;;;13.45;32.85;101577.04;1746943;82;21059;-69
2021/10/07 08:21:29;;;;;;;7.05;3.37;;;;;;;13.55;32.82;101581.32;1741545;82;21541;-69
2021/10/07 08:23:57;;;;;;;;;;;;;;;13.81;32.67;101571.64;1748184;82;21102;-69
2021/10/07 08:26:23;;;;;;;8.73;3.20;;;;;;;14.14;32.29;101574.88;1741932;82;20105;-69
2021/10/07 08:28:50;;;;;;;10.98;3.35;;;;;;;14.23;31.34;101578.34;1724257;82;21059;-68
2021/10/07 08:31:16;;;;;;;7.00;2.45;;;;;;;14.31;30.55;101568.30;1724051;82;21873;-69
2021/10/07 08:33:43;;;;;;;12.23;3.58;;;;;;;14.27;29.91;101569.91;1734209;82;21130;-72
2021/10/07 08:36:09;;;;;;;11.15;2.30;;;;;;;14.13;29.76;101571.88;1735451;82;21440;-69
2021/10/07 08:38:36;;;;;;;;;;;;;;;14.11;29.50;101572.11;1749123;82;21037;-69
2021/10/07 08:41:03;;;;;;;6.40;2.60;;;;;;;14.05;29.72;101563.54;1745772;82;20427;-68
2021/10/07 08:43:31;;;;;;;11.73;3.55;;;;;;;13.91;30.09;101559.48;1737728;82;21596;-68
2021/10/07 08:45:57;;;;;;;8.15;3.27;;;;;;;14.00;30.60;101559.88;1740457;82;20950;-69
2021/10/07 08:48:23;;;;;;;;;;;;;;;14.16;30.64;101566.72;1725914;82;21115;-69
2021/10/07 08:50:50;;;;;;;12.75;3.12;;;;;;;14.25;30.34;101558.36;1739536;82;20134;-69
2021/10/07 08:53:16;;;;;;;;;;;;;;;14.34;30.18;101549.20;1747512;80;21023;-68
2021/10/07 08:55:42;;;;;;;12.75;2.30;;;;;;;14.49;29.75;101551.33;1745726;82;20196;-70
2021/10/07 08:58:11;;;;;;;;;;;;;;;14.44;29.78;101557.56;1741929;82;21082;-69
2021/10/07 09:00:37;;;;;;;8.85;2.00;;;;;;;14.54;29.45;101554.12;1738332;82;20135;-69
2021/10/07 09:03:19;;;;;;;7.05;2.00;;;;;;;14.47;28.78;101550.73;1735891;82;21066;-69
2021/10/07 09:05:45;;;;;;;8.80;1.70;;;;;;;14.51;28.86;101551.89;1753004;82;20964;-68
2021/10/07 09:08:14;;;;;;;6.22;1.60;;;;;;;14.54;28.81;101550.01;1752743;82;21038;-69
2021/10/07 09:10:49;;;;;;;9.95;2.15;;;;;;;14.61;28.58;101547.38;1733763;82;20991;-68
2021/10/07 09:13:25;;;;;;;7.35;2.12;;;;;;;14.70;28.77;101545.03;1723431;82;21164;-68
2021/10/07 09:15:56;;;;;;;9.53;2.15;;;;;;;14.91;29.27;101538.70;1751816;82;20960;-69
2021/10/07 09:18:25;;;;;;;9.05;1.72;;;;;;;15.30;29.14;101540.19;1737914;82;21043;-69
2021/10/07 09:20:54;;;;;;;4.87;1.45;;;;;;;15.61;28.18;101552.88;1736865;82;21038;-69
2021/10/07 09:23:33;;;;;;;7.12;1.65;;;;;;;15.68;27.10;101538.38;1741585;82;21035;-68
2021/10/07 09:26:05;;;;;;;8.08;1.60;;;;;;;15.50;26.72;101539.61;1736816;82;21027;-69
2021/10/07 09:28:53;;;;;;;7.58;1.30;;;;;;;15.13;26.92;101531.24;1731333;82;21120;-68
2021/10/07 09:31:29;;;;;;;5.78;1.75;;;;;;;14.96;27.85;101530.52;1740768;82;21007;-69
2021/10/07 09:34:03;;;;;;;4.45;1.20;;;;;;;14.99;27.51;101534.64;1722503;83;21022;-69
2021/10/07 09:36:30;;;;;;;6.55;1.55;;;;;;;14.68;27.69;101533.47;1723847;82;21548;-70
2021/10/07 09:38:57;;;;;;;8.23;1.52;;;;;;;14.39;27.60;101539.67;1724873;82;21568;-69
2021/10/07 09:41:27;;;;;;;6.50;1.65;;;;;;;14.10;27.94;101542.26;1723382;82;21485;-69
2021/10/07 09:43:56;;;;;;;3.37;1.32;;;;;;;13.79;28.64;101529.98;1736433;82;21027;-69
2021/10/07 09:46:44;;;;;;;7.22;1.70;;;;;;;13.48;29.10;101540.98;1743245;82;20951;-69
2021/10/07 09:49:19;;;;;;;6.12;1.17;;;;;;;13.21;29.42;101542.16;1739504;82;21015;-68
2021/10/07 09:51:51;;;;;;;2.45;1.50;;;;;;;12.90;29.27;101535.75;1740937;82;20991;-69
2021/10/07 09:54:26;;;;;;;4.00;1.40;;;;;;;12.55;29.98;101541.33;1731158;82;21510;-70
2021/10/07 09:56:58;;;;;;;8.43;1.90;;;;;;;12.21;30.68;101546.33;1719903;82;21011;-70
2021/10/07 09:59:26;;;;;;;5.42;1.70;;;;;;;11.95;31.05;101539.44;1710006;82;21598;-70
2021/10/07 10:01:55;;;;;;;2.60;1.30;;;;;;;11.72;31.09;101534.82;1652684;86;21020;-70
2021/10/07 10:04:23;;;;;;;7.30;1.67;;;;;;;11.51;31.89;101542.70;1721010;82;21011;-70
2021/10/07 10:06:49;;;;;;;6.40;1.45;;;;;;;11.39;32.37;101531.76;1718477;82;21047;-70
2021/10/07 10:09:16;;;;;;;3.70;1.40;;;;;;;11.31;33.06;101537.01;1711760;82;21052;-70
2021/10/07 10:11:42;;;;;;;13.90;4.95;;;;;;;11.31;33.52;101537.01;1728559;82;20996;-70
2021/10/07 10:16:55;;;;;;;9.53;1.93;;;;;;;11.34;33.64;101532.45;1794079;79;22827;-71
2021/10/07 10:19:21;;;;;;;5.22;1.98;;;;;;;11.30;34.22;101526.36;1735649;82;21075;-73
2021/10/07 10:21:47;;;;;;;6.97;2.02;;;;;;;11.34;33.56;101527.52;1685171;84;21068;-71
2021/10/07 10:24:14;;;;;;;9.28;2.35;;;;;;;11.32;33.81;101528.30;1698827;84;21125;-70
2021/10/07 10:26:40;;;;;;;4.33;1.92;;;;;;;11.29;34.30;101521.95;1694891;84;21090;-71
2021/10/07 10:29:20;;;;;;;;;;;;;;;11.29;34.52;101526.05;1673599;84;21627;-71
2021/10/07 10:31:53;;;;;;;7.37;2.55;;;;;;;11.27;34.36;101523.54;1687382;84;20782;-71
2021/10/07 10:34:20;;;;;;;9.70;2.33;;;;;;;11.16;34.80;101522.17;1699069;83;21583;-71
2021/10/07 10:36:59;;;;;;;6.37;2.83;;;;;;;11.12;35.06;101519.08;1691098;84;21058;-70
2021/10/07 10:39:33;;;;;;;8.33;2.60;;;;;;;11.12;35.23;101519.08;1686308;84;21614;-71
2021/10/07 10:42:07;;;;;;;8.33;2.27;;;;;;;11.14;35.50;101510.12;1691938;84;20984;-71
2021/10/07 10:44:48;;;;;;;5.75;1.90;;;;;;;11.16;35.61;101508.53;1691237;84;21144;-71
2021/10/07 10:47:19;;;;;;;10.25;2.15;;;;;;;11.24;35.41;101507.66;1688191;84;21046;-72
2021/10/07 10:49:57;;;;;;;7.05;2.30;;;;;;;11.28;35.63;101502.04;1688984;84;21122;-71
2021/10/07 10:52:26;;;;;;;7.35;2.45;;;;;;;11.35;35.79;101504.13;1686046;84;20999;-71
2021/10/07 10:55:08;;;;;;;4.37;1.92;;;;;;;11.40;35.45;101502.91;1690898;83;21130;-71
2021/10/07 10:57:45;;;;;;;5.95;1.95;;;;;;;11.41;35.34;101493.64;1684616;85;21026;-71
2021/10/07 11:00:30;;;;;;;8.28;1.62;;;;;;;11.43;35.09;101490.16;1687632;84;21566;-70
2021/10/07 11:03:15;;;;;;;4.55;1.02;;;;;;;11.50;34.60;101484.59;1693353;84;21560;-70
2021/10/07 11:06:01;;;;;;;4.05;1.05;;;;;;;11.54;33.45;101494.50;1697285;83;21500;-69
2021/10/07 11:08:30;;;;;;;5.55;1.25;;;;;;;11.56;33.43;101479.55;1697128;83;21510;-69
2021/10/07 11:10:58;;;;;;;4.55;1.35;;;;;;;11.62;33.30;101492.23;1690333;84;20987;-68
2021/10/07 11:13:30;;;;;;;4.10;1.17;;;;;;;11.67;32.79;101486.08;1690735;82;21482;-69
2021/10/07 11:16:00;;;;;;;4.20;0.98;;;;;;;11.70;32.48;101472.80;1677435;85;21051;-68
2021/10/07 11:18:33;;;;;;;6.55;1.47;;;;;;;11.71;32.42;101480.48;1716815;82;21103;-69
2021/10/07 11:21:01;;;;;;;6.15;1.80;;;;;;;11.72;32.48;101466.62;1678703;83;21039;-69
2021/10/07 11:23:29;;;;;;;4.00;1.45;;;;;;;11.76;32.27;101475.16;1672746;84;21079;-68
2021/10/07 11:25:56;;;;;;;5.05;1.50;;;;;;;11.77;32.70;101481.72;1677039;84;21581;-70
2021/10/07 11:28:32;;;;;;;6.10;1.75;;;;;;;11.81;32.44;101468.44;1669775;84;21034;-69
2021/10/07 11:31:02;;;;;;;5.22;1.27;;;;;;;11.85;32.14;101476.45;1714612;82;21557;-71
2021/10/07 11:33:30;;;;;;;4.05;1.30;;;;;;;11.87;31.81;101475.66;1717564;81;21123;-71
2021/10/07 11:35:59;;;;;;;3.52;1.17;;;;;;;11.85;31.94;101475.08;1716799;82;21024;-71
2021/10/07 11:38:25;;;;;;;6.00;1.40;;;;;;;11.87;32.05;101486.58;1713708;83;21028;-71
2021/10/07 11:40:53;;;;;;;3.50;1.15;;;;;;;11.89;31.71;101462.62;1715370;82;21047;-71
2021/10/07 11:43:26;;;;;;;3.87;1.25;;;;;;;11.91;31.35;101472.75;1683724;84;21086;-71